Time;durP1;ratioP1;P1;durP2;ratioP2;P2;SDS_P1;SDS_P2;PMS_P1;PMS_P2;Temp;Humidity;BMP_temperature;BMP_pressure;BME280_temperature;BME280_humidity;BME280_pressure;Samples;Min_cycle;Max_cycle;Signal;HPM_P1;HPM_P2
2022/03/24 00:00:51;;;;;;;62.40;30.77;;;;;;;8.34;53.67;102434.97;5111053;28;20036;-64
2022/03/24 00:03:17;;;;;;;61.10;30.20;;;;;;;8.41;54.01;102434.47;5110747;28;20491;-63
2022/03/24 00:05:48;;;;;;;62.55;29.67;;;;;;;8.33;55.60;102434.13;5092199;28;20040;-63
2022/03/24 00:08:15;;;;;;;64.25;30.58;;;;;;;8.33;55.34;102433.25;5096518;28;20101;-63
2022/03/24 00:10:41;;;;;;;63.35;28.73;;;;;;;8.36;55.06;102438.34;5094341;28;21486;-63
2022/03/24 00:13:08;;;;;;;65.57;30.85;;;;;;;8.32;54.08;102436.84;5093783;28;20089;-63
2022/03/24 00:15:35;;;;;;;66.70;30.40;;;;;;;8.27;55.65;102429.19;5095159;28;20048;-63
2022/03/24 00:18:02;;;;;;;59.95;30.65;;;;;;;8.26;54.35;102431.00;5104493;28;20046;-63
2022/03/24 00:20:28;;;;;;;71.82;30.25;;;;;;;8.16;56.35;102426.41;5099136;28;20040;-64
2022/03/24 00:22:55;;;;;;;66.10;31.13;;;;;;;8.19;55.99;102426.22;5077058;28;20033;-64
2022/03/24 00:25:24;;;;;;;66.68;30.05;;;;;;;8.12;56.84;102430.19;5092631;28;20083;-64
2022/03/24 00:27:50;;;;;;;73.22;30.35;;;;;;;8.15;56.83;102422.03;5094807;28;20040;-64
2022/03/24 00:30:17;;;;;;;64.15;31.80;;;;;;;8.13;56.80;102423.94;5072622;28;20532;-64
2022/03/24 00:32:44;;;;;;;60.78;29.98;;;;;;;8.11;56.66;102420.56;5113450;28;20047;-64
2022/03/24 00:35:11;;;;;;;63.92;30.83;;;;;;;8.15;56.86;102422.03;5115718;28;20044;-64
2022/03/24 00:37:39;;;;;;;64.03;30.05;;;;;;;8.11;56.46;102416.09;5080332;28;20044;-64
2022/03/24 00:40:07;;;;;;;60.90;30.65;;;;;;;8.07;55.84;102414.59;5112995;28;20096;-64
2022/03/24 00:42:36;;;;;;;66.20;31.52;;;;;;;7.95;57.81;102420.66;5096903;28;20465;-64
2022/03/24 00:45:06;;;;;;;62.58;31.02;;;;;;;7.93;58.18;102418.13;5105097;28;20032;-64
2022/03/24 00:47:35;;;;;;;72.35;30.73;;;;;;;7.96;57.91;102417.94;5103631;28;20134;-64
2022/03/24 00:50:05;;;;;;;57.65;29.73;;;;;;;7.76;58.07;102416.53;5072293;28;20049;-64
2022/03/24 00:52:32;;;;;;;73.32;31.17;;;;;;;7.78;57.00;102419.06;5091061;28;20075;-64
2022/03/24 00:54:59;;;;;;;65.25;31.52;;;;;;;7.77;57.95;102415.59;5083369;28;20032;-64
2022/03/24 00:57:25;;;;;;;60.40;31.25;;;;;;;7.68;58.55;102417.00;5093202;28;20040;-64
2022/03/24 00:59:52;;;;;;;70.45;31.98;;;;;;;7.74;57.97;102418.41;5076330;28;20106;-63
2022/03/24 01:02:19;;;;;;;64.15;30.60;;;;;;;7.69;58.48;102417.84;5105837;28;20055;-64
2022/03/24 01:04:46;;;;;;;74.18;31.40;;;;;;;7.57;59.91;102413.34;5077579;28;20118;-64
2022/03/24 01:07:14;;;;;;;74.22;30.98;;;;;;;7.64;58.63;102417.25;5095276;28;20052;-64
2022/03/24 01:09:41;;;;;;;61.17;31.10;;;;;;;7.65;59.45;102411.06;5092820;28;20044;-63
2022/03/24 01:12:09;;;;;;;66.95;31.88;;;;;;;7.65;58.87;102413.69;5092879;28;20487;-64
2022/03/24 01:14:37;;;;;;;64.60;31.20;;;;;;;7.71;59.82;102415.09;5095955;28;20416;-64
2022/03/24 01:17:04;;;;;;;68.55;31.38;;;;;;;7.64;59.58;102417.25;5086277;28;20445;-64
2022/03/24 01:19:32;;;;;;;64.25;31.40;;;;;;;7.60;58.82;102415.75;5101162;28;20043;-63
2022/03/24 01:22:00;;;;;;;61.72;31.02;;;;;;;7.60;59.79;102411.31;5111798;28;20074;-64
2022/03/24 01:24:27;;;;;;;79.75;30.67;;;;;;;7.57;59.82;102410.69;5087629;28;20094;-64
2022/03/24 01:26:54;;;;;;;65.25;31.35;;;;;;;7.49;60.64;102412.00;5092457;28;20432;-63
2022/03/24 01:29:22;;;;;;;68.30;32.17;;;;;;;7.51;59.88;102409.25;5092503;28;20044;-64
2022/03/24 01:31:49;;;;;;;73.10;32.03;;;;;;;7.53;60.84;102417.06;5090502;28;20372;-64
2022/03/24 01:34:17;;;;;;;66.00;30.98;;;;;;;7.48;60.73;102409.44;5092037;28;20123;-64
2022/03/24 01:36:43;;;;;;;68.38;31.33;;;;;;;7.42;59.80;102412.44;5075479;28;20040;-63
2022/03/24 01:39:10;;;;;;;63.92;30.92;;;;;;;7.37;59.96;102410.09;5093935;28;20123;-63
2022/03/24 01:41:40;;;;;;;62.33;31.10;;;;;;;7.33;61.40;102413.00;5112376;28;20499;-64
2022/03/24 01:44:12;;;;;;;69.03;31.00;;;;;;;7.37;62.22;102403.94;5112762;28;20035;-64
2022/03/24 01:46:56;;;;;;;65.50;29.77;;;;;;;7.30;62.24;102399.06;5078679;28;20522;-64
2022/03/24 01:49:24;;;;;;;68.72;29.73;;;;;;;7.24;61.94;102396.78;5096169;28;20518;-64
2022/03/24 01:51:51;;;;;;;67.13;31.13;;;;;;;7.21;62.40;102399.59;5113348;28;20096;-64
2022/03/24 01:54:19;;;;;;;70.10;30.08;;;;;;;7.31;63.02;102402.53;5105112;28;20036;-64
2022/03/24 01:56:46;;;;;;;67.63;30.35;;;;;;;7.39;62.03;102396.81;5091899;28;20055;-63
2022/03/24 01:59:16;;;;;;;68.53;29.92;;;;;;;7.35;62.31;102400.56;5091893;28;20059;-65
2022/03/24 02:01:44;;;;;;;69.32;30.40;;;;;;;7.33;62.92;102400.66;5082957;28;20068;-64
2022/03/24 02:04:11;;;;;;;72.55;29.85;;;;;;;7.22;62.97;102398.69;5075367;28;20089;-64
2022/03/24 02:06:38;;;;;;;71.95;30.65;;;;;;;7.21;63.45;102394.31;5100376;28;20048;-63
2022/03/24 02:09:06;;;;;;;63.55;30.92;;;;;;;7.17;62.65;102397.22;5108731;28;20044;-64
2022/03/24 02:11:34;;;;;;;65.28;29.20;;;;;;;7.11;63.78;102395.81;5097773;28;20501;-64
2022/03/24 02:14:02;;;;;;;69.30;31.73;;;;;;;7.13;63.81;102388.66;5039715;28;20128;-64
2022/03/24 02:16:34;;;;;;;73.40;30.73;;;;;;;7.16;63.86;102390.25;5072786;28;20040;-64
2022/03/24 02:19:12;;;;;;;68.63;30.52;;;;;;;7.25;62.69;102387.91;5095032;28;20093;-63
2022/03/24 02:21:41;;;;;;;62.33;29.52;;;;;;;7.19;62.40;102384.81;5094798;28;20036;-64
2022/03/24 02:24:09;;;;;;;71.05;30.42;;;;;;;7.15;63.38;102384.16;5106353;28;20040;-63
2022/03/24 02:26:37;;;;;;;66.70;29.92;;;;;;;7.13;63.51;102387.78;5087347;28;20982;-63
2022/03/24 02:29:06;;;;;;;72.30;29.90;;;;;;;7.05;63.13;102383.81;5089680;28;20036;-63
2022/03/24 02:31:37;;;;;;;60.92;28.88;;;;;;;7.01;63.47;102387.59;5085254;28;20430;-64
2022/03/24 02:34:40;;;;;;;65.63;29.50;;;;;;;7.08;63.41;102378.38;5112006;28;20048;-64
2022/03/24 02:36:54;;;;;;;62.58;29.38;;;;;;;6.96;64.81;102386.16;5109735;28;20150;-64
2022/03/24 02:39:22;;;;;;;59.55;28.83;;;;;;;7.05;63.32;102383.81;5080346;28;20070;-63
2022/03/24 02:41:52;;;;;;;61.70;29.02;;;;;;;6.98;63.98;102387.75;5084062;28;20384;-64
2022/03/24 02:44:20;;;;;;;60.25;27.67;;;;;;;6.95;64.27;102390.59;5093738;28;20044;-64
2022/03/24 02:46:48;;;;;;;59.33;28.63;;;;;;;6.96;64.18;102388.81;5079320;28;20044;-63
2022/03/24 02:49:18;;;;;;;64.68;29.35;;;;;;;6.98;64.14;102394.84;5083737;28;20135;-64
2022/03/24 02:51:44;;;;;;;58.58;29.05;;;;;;;7.02;63.67;102396.34;5091189;28;20056;-64
2022/03/24 02:54:11;;;;;;;59.63;28.65;;;;;;;6.92;63.95;102393.41;5093009;28;20131;-64
2022/03/24 02:56:38;;;;;;;65.78;28.83;;;;;;;6.79;64.21;102393.28;5091248;28;20480;-64
2022/03/24 02:59:06;;;;;;;64.18;27.92;;;;;;;6.81;64.42;102387.91;5062713;28;20047;-64
2022/03/24 03:01:33;;;;;;;52.75;27.20;;;;;;;6.80;63.92;102392.31;5092370;28;20036;-64
2022/03/24 03:04:00;;;;;;;61.17;27.90;;;;;;;6.82;64.35;102394.88;5090387;28;20169;-64
2022/03/24 03:06:27;;;;;;;53.22;27.23;;;;;;;6.83;64.19;102391.31;5074792;28;20404;-64
2022/03/24 03:08:54;;;;;;;57.75;27.00;;;;;;;6.77;64.47;102395.16;5092024;28;20036;-64
2022/03/24 03:11:23;;;;;;;54.92;26.52;;;;;;;6.73;64.77;102390.97;5107754;28;20523;-64
2022/03/24 03:13:50;;;;;;;57.33;26.67;;;;;;;6.59;64.99;102391.78;5092146;28;20044;-63
2022/03/24 03:16:16;;;;;;;55.20;26.52;;;;;;;6.59;64.88;102385.66;5091513;28;20043;-64
2022/03/24 03:18:44;;;;;;;54.80;27.70;;;;;;;6.62;64.60;102391.63;5092255;28;20131;-64
2022/03/24 03:21:11;;;;;;;58.45;27.10;;;;;;;6.62;65.34;102388.97;5092374;28;20062;-64
2022/03/24 03:23:39;;;;;;;54.55;26.00;;;;;;;6.61;65.42;102400.47;5091097;28;20048;-64
2022/03/24 03:26:06;;;;;;;55.22;26.70;;;;;;;6.60;65.04;102388.19;5091793;28;20047;-64
2022/03/24 03:28:33;;;;;;;56.75;26.77;;;;;;;6.58;64.22;102399.78;5092323;28;20665;-63
2022/03/24 03:31:00;;;;;;;53.85;26.70;;;;;;;6.63;64.76;102401.22;5074081;28;20064;-63
2022/03/24 03:33:28;;;;;;;53.90;25.85;;;;;;;6.58;64.39;102408.53;5091882;28;20040;-63
2022/03/24 03:35:55;;;;;;;58.08;27.45;;;;;;;6.58;64.88;102405.06;5091602;28;20036;-63
2022/03/24 03:38:22;;;;;;;53.10;26.65;;;;;;;6.45;65.43;102408.38;5039688;28;20067;-63
2022/03/24 03:40:49;;;;;;;53.75;26.65;;;;;;;6.46;65.21;102406.63;5077700;28;20040;-63
2022/03/24 03:43:16;;;;;;;51.15;26.40;;;;;;;6.43;64.54;102410.25;5095669;28;20102;-63
2022/03/24 03:45:45;;;;;;;58.13;25.73;;;;;;;6.38;64.00;102414.94;5088325;28;20097;-63
2022/03/24 03:48:12;;;;;;;56.58;26.38;;;;;;;6.33;64.08;102412.56;5059890;28;20515;-64
2022/03/24 03:50:41;;;;;;;52.15;25.65;;;;;;;6.26;65.62;102408.56;5094468;28;20093;-63
2022/03/24 03:53:09;;;;;;;57.58;26.58;;;;;;;6.26;66.05;102407.72;5077446;28;20492;-63
2022/03/24 03:55:37;;;;;;;55.90;26.33;;;;;;;6.28;66.03;102397.94;5095650;28;20036;-63
2022/03/24 03:58:05;;;;;;;53.72;25.88;;;;;;;6.11;65.58;102412.91;5094151;28;20043;-63
2022/03/24 04:01:04;;;;;;;53.22;27.05;;;;;;;6.10;65.12;102407.72;5095049;28;20089;-63
2022/03/24 04:03:20;;;;;;;57.78;25.92;;;;;;;6.08;64.73;102407.78;5095116;28;20129;-63
2022/03/24 04:05:47;;;;;;;54.38;25.90;;;;;;;6.06;65.42;102409.66;5094620;28;20094;-63
2022/03/24 04:08:13;;;;;;;58.42;26.58;;;;;;;6.10;65.22;102419.09;5092077;28;20522;-63
2022/03/24 04:10:40;;;;;;;54.13;26.15;;;;;;;6.07;64.99;102411.34;5064264;28;20117;-63
2022/03/24 04:13:10;;;;;;;55.15;27.45;;;;;;;6.09;63.87;102417.41;5093904;28;20504;-63
2022/03/24 04:15:38;;;;;;;54.30;26.52;;;;;;;6.05;64.00;102415.84;5101195;28;20068;-63
2022/03/24 04:18:06;;;;;;;57.47;26.00;;;;;;;6.13;64.08;102421.56;5095098;28;20040;-63
2022/03/24 04:20:34;;;;;;;59.65;27.42;;;;;;;6.14;62.81;102414.50;5093964;28;20036;-63
2022/03/24 04:23:02;;;;;;;51.38;26.50;;;;;;;6.13;62.30;102416.31;5094814;28;20424;-63
2022/03/24 04:25:29;;;;;;;54.67;26.88;;;;;;;6.08;63.26;102418.34;5095398;28;20090;-63
2022/03/24 04:27:57;;;;;;;56.22;25.88;;;;;;;6.07;62.64;102413.97;5094942;28;20407;-63
2022/03/24 04:30:28;;;;;;;52.55;25.50;;;;;;;6.04;63.24;102421.22;5094943;28;20043;-63
2022/03/24 04:32:55;;;;;;;55.58;25.77;;;;;;;6.13;63.01;102416.31;5095140;28;20051;-63
2022/03/24 04:35:22;;;;;;;54.08;25.65;;;;;;;6.04;63.77;102422.09;5091741;28;20040;-63
2022/03/24 04:37:49;;;;;;;57.92;26.25;;;;;;;6.02;63.13;102417.81;5094809;28;20036;-63
2022/03/24 04:40:18;;;;;;;51.45;26.52;;;;;;;6.01;63.44;102413.50;5076904;28;20040;-63
2022/03/24 04:42:49;;;;;;;57.40;27.70;;;;;;;6.03;63.94;102412.47;5094692;28;20036;-63
2022/03/24 04:45:17;;;;;;;;;;;;;;;6.02;62.72;102415.19;5094055;28;20075;-63
2022/03/24 04:47:45;;;;;;;57.90;25.15;;;;;;;5.99;62.52;102416.19;5094637;28;19920;-62
2022/03/24 04:50:13;;;;;;;57.67;26.13;;;;;;;5.75;63.79;102413.09;5094637;28;20036;-64
2022/03/24 04:52:41;;;;;;;60.13;26.00;;;;;;;5.76;64.27;102414.75;5094596;28;20070;-64
2022/03/24 04:55:09;;;;;;;53.75;26.20;;;;;;;5.82;63.63;102417.09;5093680;28;20044;-64
2022/03/24 04:57:36;;;;;;;54.10;26.80;;;;;;;5.83;64.04;102413.50;5094918;28;20044;-64
2022/03/24 05:00:04;;;;;;;55.50;28.38;;;;;;;5.82;63.54;102417.09;5099229;28;20036;-63
2022/03/24 05:02:31;;;;;;;56.35;28.25;;;;;;;5.79;63.55;102417.25;5094366;28;20491;-64
2022/03/24 05:04:58;;;;;;;53.08;26.73;;;;;;;5.78;63.87;102420.78;5059944;28;20052;-64
2022/03/24 05:07:26;;;;;;;53.33;26.15;;;;;;;5.81;64.01;102414.53;5091531;28;20044;-64
2022/03/24 05:09:53;;;;;;;63.53;28.52;;;;;;;5.80;64.34;102421.56;5060382;28;20044;-64
2022/03/24 05:12:20;;;;;;;63.75;25.73;;;;;;;5.76;63.85;102420.88;5093314;28;20060;-64
2022/03/24 05:14:50;;;;;;;57.75;28.30;;;;;;;5.72;64.21;102418.50;5093978;28;20040;-64
2022/03/24 05:17:17;;;;;;;58.22;27.83;;;;;;;5.66;64.15;102421.47;5072592;28;20419;-64
2022/03/24 05:19:48;;;;;;;63.60;26.23;;;;;;;5.63;64.55;102419.00;5074572;28;20043;-64
2022/03/24 05:22:16;;;;;;;54.85;27.55;;;;;;;5.60;64.80;102414.72;5076938;28;20126;-64
2022/03/24 05:24:43;;;;;;;58.22;27.55;;;;;;;5.56;64.16;102416.66;5094331;28;20040;-63
2022/03/24 05:27:11;;;;;;;58.63;27.42;;;;;;;5.43;64.96;102415.59;5093916;28;20113;-63
2022/03/24 05:29:38;;;;;;;54.67;26.17;;;;;;;5.52;64.78;102419.56;5092645;28;20044;-63
2022/03/24 05:32:05;;;;;;;64.65;27.58;;;;;;;5.52;64.69;102424.81;5092163;28;20044;-63
2022/03/24 05:34:33;;;;;;;58.88;26.73;;;;;;;5.49;64.75;102424.97;5091689;28;20052;-63
2022/03/24 05:37:00;;;;;;;62.78;27.25;;;;;;;5.52;64.20;102425.66;5090575;28;20511;-63
2022/03/24 05:39:27;;;;;;;59.80;27.02;;;;;;;5.56;64.70;102423.72;5075386;28;20458;-63
2022/03/24 05:41:54;;;;;;;61.13;27.20;;;;;;;5.55;65.22;102427.28;5075488;28;20040;-63
2022/03/24 05:44:20;;;;;;;65.05;28.23;;;;;;;5.63;65.13;102422.47;5092160;28;20093;-63
2022/03/24 05:46:48;;;;;;;59.53;27.77;;;;;;;5.65;65.49;102420.59;5092126;28;20590;-63
2022/03/24 05:49:17;;;;;;;68.25;29.15;;;;;;;5.65;65.00;102423.22;5092522;28;20480;-63
2022/03/24 05:52:04;;;;;;;64.30;26.33;;;;;;;5.61;65.10;102420.84;5092144;28;20044;-63
2022/03/24 05:54:31;;;;;;;62.35;27.23;;;;;;;5.83;64.39;102431.09;5091273;28;20036;-63
2022/03/24 05:56:58;;;;;;;56.80;27.50;;;;;;;5.73;64.96;102428.09;5092163;28;20093;-63
2022/03/24 05:59:25;;;;;;;61.10;26.23;;;;;;;5.75;64.79;102435.00;5075207;28;20123;-63
2022/03/24 06:01:52;;;;;;;56.15;27.27;;;;;;;5.71;64.73;102433.47;5091404;28;20094;-63
2022/03/24 06:04:21;;;;;;;53.95;26.00;;;;;;;5.72;64.90;102437.78;5085546;28;20456;-63
2022/03/24 06:06:53;;;;;;;60.10;27.65;;;;;;;5.63;64.99;102433.00;5091260;28;20059;-63
2022/03/24 06:09:21;;;;;;;54.78;26.63;;;;;;;5.61;65.38;102429.59;5085344;28;20040;-62
2022/03/24 06:11:49;;;;;;;60.67;27.33;;;;;;;5.63;65.52;102433.00;5078074;28;20105;-64
2022/03/24 06:14:16;;;;;;;60.42;26.40;;;;;;;5.73;65.44;102446.53;5090066;28;20671;-65
2022/03/24 06:16:44;;;;;;;74.05;28.85;;;;;;;5.78;65.30;102444.50;5073170;28;20060;-64
2022/03/24 06:19:11;;;;;;;54.35;26.58;;;;;;;5.86;64.84;102439.69;5071193;28;20132;-64
2022/03/24 06:21:38;;;;;;;57.33;27.73;;;;;;;5.88;65.12;102439.63;5074428;28;20067;-65
2022/03/24 06:24:06;;;;;;;67.75;28.25;;;;;;;5.93;65.82;102440.19;5090189;28;20043;-63
2022/03/24 06:26:33;;;;;;;58.95;27.98;;;;;;;5.97;65.33;102444.41;5092901;28;20044;-64
2022/03/24 06:29:01;;;;;;;63.60;28.70;;;;;;;6.04;64.83;102444.91;5091797;28;20147;-64
2022/03/24 06:31:28;;;;;;;60.28;28.05;;;;;;;6.10;65.11;102449.88;5092386;28;20397;-64
2022/03/24 06:33:55;;;;;;;61.63;26.35;;;;;;;6.15;64.79;102447.84;5092588;28;20454;-64
2022/03/24 06:36:22;;;;;;;68.68;28.77;;;;;;;6.18;65.23;102455.56;5089611;28;20076;-64
2022/03/24 06:38:49;;;;;;;71.85;27.55;;;;;;;6.24;64.93;102447.34;5091085;28;20411;-64
2022/03/24 06:41:16;;;;;;;61.85;28.67;;;;;;;6.36;64.25;102450.22;5074598;28;20447;-64
2022/03/24 06:43:42;;;;;;;56.58;27.92;;;;;;;6.38;64.39;102456.25;5091322;28;20036;-64
2022/03/24 06:46:09;;;;;;;63.78;29.15;;;;;;;6.38;64.66;102446.56;5071167;28;20045;-65
2022/03/24 06:48:37;;;;;;;58.58;28.58;;;;;;;6.40;63.85;102449.13;5072157;28;20041;-62
2022/03/24 06:51:04;;;;;;;63.38;29.38;;;;;;;6.48;64.18;102441.66;5080449;28;20404;-63
2022/03/24 06:53:32;;;;;;;60.03;27.83;;;;;;;6.56;63.88;102452.59;5089145;28;20489;-63
2022/03/24 06:55:59;;;;;;;65.57;29.27;;;;;;;6.63;62.91;102448.69;5094329;28;20527;-63
2022/03/24 06:58:27;;;;;;;62.85;29.25;;;;;;;6.76;62.69;102448.84;5091109;28;20072;-63
2022/03/24 07:00:54;;;;;;;65.47;29.25;;;;;;;6.74;62.87;102456.00;5091370;28;20068;-63
2022/03/24 07:03:20;;;;;;;66.22;28.77;;;;;;;6.76;62.46;102454.09;5090486;28;20044;-63
2022/03/24 07:05:47;;;;;;;69.40;29.60;;;;;;;6.81;62.04;102454.69;5091308;28;20048;-63
2022/03/24 07:08:14;;;;;;;65.05;28.70;;;;;;;6.92;62.18;102449.66;5089502;28;20078;-63
2022/03/24 07:10:44;;;;;;;71.53;31.00;;;;;;;6.95;61.90;102439.84;5092084;28;20063;-63
2022/03/24 07:13:11;;;;;;;64.75;30.08;;;;;;;7.05;61.82;102451.59;5091279;28;20381;-63
2022/03/24 07:15:38;;;;;;;65.07;30.20;;;;;;;7.11;61.78;102452.09;5096147;28;20120;-63
2022/03/24 07:18:08;;;;;;;61.03;30.48;;;;;;;7.18;61.60;102449.09;5098223;28;20048;-63
2022/03/24 07:20:36;;;;;;;71.70;32.17;;;;;;;7.22;61.22;102453.22;5101845;28;20048;-62
2022/03/24 07:23:04;;;;;;;70.93;31.92;;;;;;;7.39;60.16;102455.75;5096268;28;20377;-63
2022/03/24 07:25:31;;;;;;;67.10;31.90;;;;;;;7.39;60.89;102460.19;5095470;28;20115;-62
2022/03/24 07:27:59;;;;;;;67.10;30.88;;;;;;;7.59;59.58;102461.63;5057839;28;20056;-62
2022/03/24 07:30:26;;;;;;;68.75;32.03;;;;;;;7.42;60.38;102460.84;5075504;28;20040;-63
2022/03/24 07:32:55;;;;;;;69.75;30.85;;;;;;;7.62;59.80;102459.66;5075620;28;20400;-62
2022/03/24 07:35:24;;;;;;;69.43;31.55;;;;;;;7.58;59.59;102462.56;5073421;28;20033;-63
2022/03/24 07:37:52;;;;;;;70.65;31.38;;;;;;;7.69;59.23;102462.75;5058276;28;20048;-63
2022/03/24 07:40:21;;;;;;;68.10;32.53;;;;;;;7.66;59.88;102469.06;5082845;28;20078;-63
2022/03/24 07:42:52;;;;;;;72.18;32.15;;;;;;;7.79;59.50;102466.53;5094752;28;20048;-63
2022/03/24 07:45:20;;;;;;;70.38;32.92;;;;;;;7.84;60.09;102468.88;5094163;28;20055;-62
2022/03/24 07:48:13;;;;;;;69.55;32.53;;;;;;;7.99;58.88;102464.47;5094614;28;20484;-63
2022/03/24 07:50:43;;;;;;;71.90;32.20;;;;;;;8.11;58.09;102463.69;5095260;28;20044;-63
2022/03/24 07:55:48;;;;;;;75.03;32.95;;;;;;;8.02;59.42;102469.53;5110673;27;20368;-64
2022/03/24 07:58:17;;;;;;;72.22;33.08;;;;;;;8.16;58.40;102468.69;5098372;28;20071;-64
2022/03/24 08:00:44;;;;;;;77.63;34.20;;;;;;;8.24;58.79;102471.69;5086591;28;20086;-64
2022/03/24 08:03:17;;;;;;;68.90;32.88;;;;;;;8.41;57.88;102471.50;5089656;28;20388;-64
2022/03/24 08:05:45;;;;;;;73.25;34.40;;;;;;;8.39;57.56;102476.03;5099520;28;20090;-63
2022/03/24 08:08:13;;;;;;;75.15;35.90;;;;;;;8.48;57.39;102474.63;5086766;28;20098;-63
2022/03/24 08:10:43;;;;;;;74.55;34.97;;;;;;;8.51;57.63;102478.88;5069448;28;20106;-63
2022/03/24 08:13:10;;;;;;;84.40;34.85;;;;;;;8.70;57.16;102486.50;5068662;28;20067;-63
2022/03/24 08:15:38;;;;;;;77.90;36.17;;;;;;;8.78;57.09;102479.72;5082489;28;20497;-63
2022/03/24 08:18:06;;;;;;;85.50;37.50;;;;;;;8.84;55.85;102492.56;5088007;28;20123;-63
2022/03/24 08:20:37;;;;;;;81.80;36.08;;;;;;;8.87;56.38;102483.56;5088344;28;20075;-63
2022/03/24 08:23:05;;;;;;;89.95;36.47;;;;;;;9.01;56.04;102486.16;5088500;28;20044;-63
2022/03/24 08:25:32;;;;;;;95.38;39.22;;;;;;;8.82;57.23;102485.66;5085220;28;20492;-63
2022/03/24 08:27:59;;;;;;;88.00;38.30;;;;;;;9.12;56.74;102481.97;5089755;28;20046;-63
2022/03/24 08:30:26;;;;;;;83.43;37.95;;;;;;;9.17;56.56;102486.00;5088157;28;20501;-63
2022/03/24 08:32:53;;;;;;;82.97;38.78;;;;;;;9.46;54.73;102482.34;5088295;28;20492;-63
2022/03/24 08:35:20;;;;;;;85.50;37.25;;;;;;;9.15;56.17;102479.97;5085533;28;20094;-63
2022/03/24 08:37:47;;;;;;;82.85;38.28;;;;;;;9.18;55.38;102487.69;5087424;28;20442;-63
2022/03/24 08:40:13;;;;;;;70.85;37.67;;;;;;;9.59;54.75;102485.88;5082635;28;20068;-63
2022/03/24 08:42:42;;;;;;;79.35;38.30;;;;;;;9.85;53.29;102476.09;5087606;28;20044;-63
2022/03/24 08:45:11;;;;;;;86.22;38.58;;;;;;;10.06;53.13;102487.00;5086567;28;20040;-62
2022/03/24 08:47:39;;;;;;;84.93;39.25;;;;;;;10.29;52.57;102489.81;5086228;28;20056;-62
2022/03/24 08:50:08;;;;;;;87.97;37.67;;;;;;;10.48;52.71;102486.75;5084281;28;20109;-62
2022/03/24 08:52:35;;;;;;;84.05;39.75;;;;;;;10.56;51.82;102482.56;5085555;28;20183;-62
2022/03/24 08:55:05;;;;;;;82.68;39.28;;;;;;;10.75;51.79;102491.81;5089180;28;20040;-62
2022/03/24 08:57:33;;;;;;;86.63;39.72;;;;;;;11.13;50.54;102494.31;5088625;28;20043;-62
2022/03/24 09:00:07;;;;;;;88.70;40.28;;;;;;;11.22;50.61;102490.09;5088243;28;20173;-62
2022/03/24 09:02:35;;;;;;;85.30;39.50;;;;;;;11.48;46.77;102487.31;5081957;28;20068;-62
2022/03/24 09:05:03;;;;;;;86.38;40.53;;;;;;;11.70;47.16;102486.50;5084901;28;20037;-62
2022/03/24 09:07:35;;;;;;;81.10;39.40;;;;;;;11.39;47.77;102494.16;5071093;28;20040;-62
2022/03/24 09:10:06;;;;;;;80.57;39.92;;;;;;;11.82;48.50;102495.31;5074153;28;20053;-62
2022/03/24 09:12:35;;;;;;;88.25;40.97;;;;;;;12.20;45.19;102489.66;5071904;28;20048;-62
2022/03/24 09:15:05;;;;;;;91.43;40.92;;;;;;;12.34;46.17;102485.06;5073812;28;20439;-62
2022/03/24 09:17:32;;;;;;;85.30;39.95;;;;;;;12.87;44.65;102495.84;5074575;28;20056;-62
2022/03/24 09:20:00;;;;;;;85.07;40.50;;;;;;;13.43;43.51;102484.09;5075076;28;20154;-63
2022/03/24 09:22:30;;;;;;;87.40;41.70;;;;;;;14.10;41.26;102490.78;5068765;28;20044;-62
2022/03/24 09:24:57;;;;;;;89.75;40.25;;;;;;;14.91;40.13;102497.84;5046327;28;20481;-62
2022/03/24 09:27:24;;;;;;;92.07;41.85;;;;;;;16.02;36.97;102491.06;5072171;28;20382;-64
2022/03/24 09:29:52;;;;;;;93.80;42.42;;;;;;;17.25;34.60;102494.22;5074314;28;20051;-63
2022/03/24 09:32:19;;;;;;;95.03;44.63;;;;;;;17.81;33.52;102495.59;5074548;28;20040;-63
2022/03/24 09:34:46;;;;;;;122.05;54.35;;;;;;;18.98;32.19;102504.75;5078646;28;20123;-63
2022/03/24 09:37:17;;;;;;;89.05;44.78;;;;;;;19.60;30.46;102498.00;5073683;28;20479;-61
2022/03/24 09:39:45;;;;;;;82.57;43.88;;;;;;;19.70;30.37;102489.72;5072682;28;20090;-61
2022/03/24 09:42:12;;;;;;;93.45;45.28;;;;;;;20.13;29.87;102493.81;5073473;28;20045;-62
2022/03/24 09:44:42;;;;;;;94.57;44.45;;;;;;;20.54;28.39;102492.78;5074551;28;20396;-61
2022/03/24 09:47:12;;;;;;;88.75;46.00;;;;;;;20.23;27.88;102495.44;5074415;28;20048;-61
2022/03/24 09:49:40;;;;;;;95.13;44.40;;;;;;;20.43;26.62;102493.16;5071251;28;20045;-62
2022/03/24 09:52:08;;;;;;;95.13;44.97;;;;;;;20.72;26.73;102489.81;5054817;28;20051;-63
2022/03/24 09:54:35;;;;;;;84.20;45.55;;;;;;;21.73;24.45;102486.91;5071770;28;20053;-63
2022/03/24 09:57:05;;;;;;;90.22;45.58;;;;;;;22.67;23.65;102486.25;5074446;28;20048;-63
2022/03/24 09:59:32;;;;;;;96.15;48.58;;;;;;;23.08;23.18;102494.53;5072221;28;20045;-64
2022/03/24 10:02:01;;;;;;;97.65;47.75;;;;;;;23.42;22.71;102500.25;5054311;28;20103;-63
2022/03/24 10:05:01;;;;;;;94.63;48.58;;;;;;;24.90;21.55;102487.97;5085545;28;20371;-63
2022/03/24 10:07:46;;;;;;;84.72;47.08;;;;;;;25.66;20.38;102489.38;5052057;28;20071;-63
2022/03/24 10:10:31;;;;;;;97.50;48.88;;;;;;;25.45;20.55;102490.47;5053479;28;20140;-63
2022/03/24 10:12:58;;;;;;;89.82;50.03;;;;;;;26.26;19.73;102487.53;5072368;28;20045;-62
2022/03/24 10:15:25;;;;;;;88.50;49.40;;;;;;;26.10;19.94;102489.69;5073972;28;20045;-62
2022/03/24 10:17:56;;;;;;;88.05;50.28;;;;;;;27.07;18.77;102484.06;5072504;28;20044;-63
2022/03/24 10:20:28;;;;;;;87.47;50.05;;;;;;;25.46;20.07;102483.97;5071659;28;20071;-63
2022/03/24 10:23:03;;;;;;;84.22;48.65;;;;;;;27.18;18.09;102491.50;5072477;28;20048;-63
2022/03/24 10:25:33;;;;;;;93.72;50.25;;;;;;;27.14;17.98;102484.84;5071400;28;20068;-63
2022/03/24 10:28:07;;;;;;;84.22;50.00;;;;;;;27.58;17.09;102482.97;5072244;28;20573;-62
2022/03/24 10:30:52;;;;;;;96.00;50.15;;;;;;;26.96;17.81;102476.59;5074108;28;20075;-61
2022/03/24 10:33:45;;;;;;;80.95;47.92;;;;;;;27.48;17.18;102485.38;5071797;28;20044;-62
2022/03/24 10:36:23;;;;;;;89.57;48.20;;;;;;;26.64;17.82;102475.81;5073740;28;20049;-62
2022/03/24 10:38:53;;;;;;;86.85;49.38;;;;;;;26.68;17.52;102477.03;5082394;28;20048;-61
2022/03/24 10:41:23;;;;;;;84.65;48.47;;;;;;;26.64;18.17;102478.56;5092503;28;20048;-62
2022/03/24 10:43:52;;;;;;;93.97;47.85;;;;;;;26.58;18.49;102472.06;5072859;28;20044;-62
2022/03/24 10:46:26;;;;;;;97.57;48.92;;;;;;;26.31;18.34;102476.84;5048554;28;20124;-61
2022/03/24 10:48:53;;;;;;;87.85;47.72;;;;;;;25.39;18.14;102474.19;5070242;28;20386;-62
2022/03/24 10:51:24;;;;;;;82.78;47.33;;;;;;;24.37;19.06;102466.13;5067683;28;20045;-62
2022/03/24 10:53:51;;;;;;;105.43;50.25;;;;;;;23.01;21.31;102469.25;5070749;28;20080;-61
2022/03/24 10:56:29;;;;;;;95.70;48.05;;;;;;;22.50;21.66;102464.00;5070649;28;20036;-61
2022/03/24 10:59:01;;;;;;;91.22;48.08;;;;;;;22.79;22.08;102469.31;5072859;28;20396;-61
2022/03/24 11:01:29;;;;;;;102.05;49.83;;;;;;;22.51;21.87;102463.81;5072326;28;20044;-62
2022/03/24 11:03:56;;;;;;;85.38;48.97;;;;;;;22.76;21.45;102463.44;5072520;28;20048;-62
2022/03/24 11:06:23;;;;;;;86.82;46.38;;;;;;;22.47;21.35;102459.00;5067992;28;20044;-62
2022/03/24 11:08:52;;;;;;;82.57;44.40;;;;;;;22.56;20.77;102461.38;5054344;28;20086;-63
2022/03/24 11:11:20;;;;;;;87.32;47.28;;;;;;;22.57;21.27;102459.50;5074194;28;20062;-61
2022/03/24 11:13:51;;;;;;;81.35;44.17;;;;;;;22.45;20.60;102461.88;5072558;28;20386;-61
2022/03/24 11:16:23;;;;;;;74.15;42.10;;;;;;;22.42;19.77;102462.25;5071959;28;20040;-61
2022/03/24 11:18:52;;;;;;;83.55;43.47;;;;;;;22.56;20.39;102453.25;5072937;28;20061;-61
2022/03/24 11:24:15;;;;;;;76.82;42.42;;;;;;;24.07;18.63;102450.19;5105524;27;21065;-62
2022/03/24 11:26:45;;;;;;;78.75;42.53;;;;;;;25.09;17.15;102452.88;5089875;28;20129;-62